createdAt,value
2022-09-03T00:02:52.024Z,101488.66
2022-09-03T00:05:48.534Z,101482.97
2022-09-03T00:08:36.694Z,101481.84
2022-09-03T00:11:27.183Z,101486.91
2022-09-03T00:14:06.096Z,101486.66
2022-09-03T00:16:49.097Z,101480.19
2022-09-03T00:19:24.205Z,101484.44
2022-09-03T00:21:57.399Z,101479.66
2022-09-03T00:24:28.268Z,101478.53
2022-09-03T00:27:00.040Z,101483.66
2022-09-03T00:29:37.876Z,101489.81
2022-09-03T00:32:27.791Z,101480.28
2022-09-03T00:35:01.063Z,101484.81
2022-09-03T00:37:28.710Z,101487.69
2022-09-03T00:40:00.726Z,101483.69
2022-09-03T00:42:39.943Z,101478.66
2022-09-03T00:45:25.511Z,101477.97
2022-09-03T00:48:19.858Z,101477.75
2022-09-03T00:51:07.553Z,101475.00
2022-09-03T00:54:00.048Z,101474.69
2022-09-03T00:56:39.595Z,101473.31
2022-09-03T00:59:35.032Z,101474.13
2022-09-03T01:02:35.394Z,101472.47
2022-09-03T01:05:15.004Z,101460.03
2022-09-03T01:08:11.824Z,101463.44
2022-09-03T01:11:01.443Z,101463.19
2022-09-03T01:13:27.810Z,101463.44
2022-09-03T01:16:22.657Z,101467.69
2022-09-03T01:19:13.853Z,101467.09
2022-09-03T01:22:20.149Z,101464.56
2022-09-03T01:25:32.058Z,101463.44
2022-09-03T01:28:32.819Z,101466.91
2022-09-03T01:31:16.509Z,101465.25
2022-09-03T01:33:46.358Z,101457.06
2022-09-03T01:36:45.701Z,101457.38
2022-09-03T01:39:22.177Z,101458.44
2022-09-03T01:42:15.805Z,101461.59
2022-09-03T01:45:29.895Z,101459.59
2022-09-03T01:48:21.573Z,101462.75
2022-09-03T01:51:03.376Z,101454.31
2022-09-03T01:54:07.095Z,101462.69
2022-09-03T01:57:35.335Z,101463.28
2022-09-03T02:00:11.805Z,101448.16
2022-09-03T02:02:39.109Z,101459.19
2022-09-03T02:05:10.538Z,101455.22
2022-09-03T02:07:40.532Z,101451.34
2022-09-03T02:10:12.196Z,101457.56
2022-09-03T02:12:43.102Z,101461.19
2022-09-03T02:15:17.337Z,101463.69
2022-09-03T02:17:48.844Z,101457.53
2022-09-03T02:20:20.149Z,101459.84
2022-09-03T02:22:48.665Z,101465.22
2022-09-03T02:25:16.772Z,101455.13
2022-09-03T02:27:44.573Z,101454.28
2022-09-03T02:30:11.711Z,101458.50
2022-09-03T02:32:38.154Z,101461.06
2022-09-03T02:35:04.939Z,101460.25
2022-09-03T02:37:31.391Z,101461.16
2022-09-03T02:39:57.923Z,101458.88
2022-09-03T02:42:24.393Z,101458.59
2022-09-03T02:44:57.507Z,101459.22
2022-09-03T02:47:31.193Z,101460.03
2022-09-03T02:49:57.632Z,101460.84
2022-09-03T02:52:24.093Z,101457.81
2022-09-03T02:54:50.557Z,101469.88
2022-09-03T02:57:17.339Z,101460.56
2022-09-03T02:59:54.006Z,101465.41
2022-09-03T03:02:20.465Z,101462.00
2022-09-03T03:04:46.918Z,101459.28
2022-09-03T03:07:13.343Z,101453.94
2022-09-03T03:09:39.791Z,101462.06
2022-09-03T03:12:07.186Z,101457.56
2022-09-03T03:14:33.619Z,101462.38
2022-09-03T03:17:00.189Z,101463.50
2022-09-03T03:19:26.668Z,101462.97
2022-09-03T03:21:53.146Z,101460.16
2022-09-03T03:24:19.787Z,101470.81
2022-09-03T03:26:46.207Z,101466.59
2022-09-03T03:29:17.850Z,101467.72
2022-09-03T03:31:44.296Z,101470.28
2022-09-03T03:34:10.743Z,101474.78
2022-09-03T03:36:37.751Z,101468.59
2022-09-03T03:39:04.369Z,101471.94
2022-09-03T03:41:33.104Z,101476.50
2022-09-03T03:44:02.021Z,101479.00
2022-09-03T03:46:34.154Z,101485.47
2022-09-03T03:49:01.256Z,101483.78
2022-09-03T03:51:28.201Z,101481.53
2022-09-03T03:53:56.745Z,101482.94
2022-09-03T03:56:24.327Z,101477.88
2022-09-03T03:58:51.611Z,101477.03
2022-09-03T04:01:20.205Z,101481.53
2022-09-03T04:03:47.374Z,101480.94
2022-09-03T04:06:16.971Z,101478.97
2022-09-03T04:08:44.830Z,101488.28
2022-09-03T04:11:16.437Z,101486.31
2022-09-03T04:13:44.652Z,101481.53
2022-09-03T04:16:12.195Z,101480.66
2022-09-03T04:18:39.687Z,101479.25
2022-09-03T04:21:11.716Z,101475.91
2022-09-03T04:23:43.995Z,101475.34
2022-09-03T04:26:12.779Z,101473.09
2022-09-03T04:28:39.543Z,101476.44
2022-09-03T04:31:08.365Z,101470.81
2022-09-03T04:33:38.048Z,101469.72
2022-09-03T04:36:20.426Z,101480.91
2022-09-03T04:38:48.777Z,101475.28
2022-09-03T04:41:20.839Z,101471.69
2022-09-03T04:43:51.602Z,101473.34
2022-09-03T04:46:19.213Z,101470.53
2022-09-03T04:48:51.049Z,101470.78
2022-09-03T04:51:20.979Z,101475.56
2022-09-03T04:53:49.926Z,101473.59
2022-09-03T04:56:18.613Z,101469.97
2022-09-03T04:58:46.155Z,101478.66
2022-09-03T05:01:17.861Z,101475.50
2022-09-03T05:03:45.410Z,101482.50
2022-09-03T05:06:13.039Z,101482.72
2022-09-03T05:08:40.330Z,101480.94
2022-09-03T05:11:07.983Z,101472.81
2022-09-03T05:13:35.723Z,101477.88
2022-09-03T05:16:04.158Z,101478.97
2022-09-03T05:18:30.668Z,101477.00
2022-09-03T05:21:01.190Z,101489.38
2022-09-03T05:23:29.012Z,101489.13
2022-09-03T05:25:58.283Z,101486.81
2022-09-03T05:28:29.995Z,101480.31
2022-09-03T05:31:02.021Z,101479.16
2022-09-03T05:33:28.486Z,101486.75
2022-09-03T05:36:01.093Z,101484.19
2022-09-03T05:38:27.652Z,101476.69
2022-09-03T05:40:54.111Z,101480.31
2022-09-03T05:43:21.504Z,101483.09
2022-09-03T05:45:48.974Z,101482.75
2022-09-03T05:48:16.214Z,101484.16
2022-09-03T05:50:42.622Z,101485.28
2022-09-03T05:53:09.051Z,101477.69
2022-09-03T05:55:35.480Z,101482.16
2022-09-03T05:58:01.930Z,101486.09
2022-09-03T06:00:28.496Z,101490.59
2022-09-03T06:02:55.000Z,101494.78
2022-09-03T06:05:21.528Z,101493.34
2022-09-03T06:07:49.562Z,101486.56
2022-09-03T06:10:19.435Z,101489.94
2022-09-03T06:12:51.669Z,101490.50
2022-09-03T06:15:18.105Z,101488.72
2022-09-03T06:17:44.531Z,101492.44
2022-09-03T06:20:11.003Z,101483.19
2022-09-03T06:22:37.444Z,101483.22
2022-09-03T06:25:04.148Z,101485.34
2022-09-03T06:27:31.320Z,101478.47
2022-09-03T06:29:59.008Z,101487.47
2022-09-03T06:32:25.438Z,101486.34
2022-09-03T06:34:51.879Z,101491.94
2022-09-03T06:37:18.326Z,101485.53
2022-09-03T06:39:44.827Z,101500.69
2022-09-03T06:42:12.262Z,101499.81
2022-09-03T06:44:41.792Z,101507.59
2022-09-03T06:47:08.262Z,101505.69
2022-09-03T06:49:34.671Z,101495.53
2022-09-03T06:52:01.098Z,101494.66
2022-09-03T06:54:27.546Z,101498.72
2022-09-03T06:56:54.007Z,101506.25
2022-09-03T06:59:20.527Z,101504.00
2022-09-03T07:01:47.115Z,101500.03
2022-09-03T07:04:16.681Z,101498.94
2022-09-03T07:06:44.231Z,101495.41
2022-09-03T07:09:12.175Z,101497.66
2022-09-03T07:11:46.648Z,101495.13
2022-09-03T07:14:14.152Z,101497.09
2022-09-03T07:16:42.016Z,101500.66
2022-09-03T07:19:09.192Z,101507.75
2022-09-03T07:21:37.088Z,101505.34
2022-09-03T07:24:05.538Z,101506.91
2022-09-03T07:26:43.735Z,101515.28
2022-09-03T07:29:15.721Z,101508.19
2022-09-03T07:31:43.488Z,101505.31
2022-09-03T07:34:12.619Z,101510.03
2022-09-03T07:36:42.774Z,101507.75
2022-09-03T07:39:13.954Z,101512.19
2022-09-03T07:41:45.753Z,101507.63
2022-09-03T07:44:19.249Z,101512.53
2022-09-03T07:46:47.671Z,101510.16
2022-09-03T07:49:14.329Z,101515.28
2022-09-03T07:51:40.777Z,101513.84
2022-09-03T07:54:10.709Z,101517.34
2022-09-03T07:56:38.958Z,101512.91
2022-09-03T07:59:05.951Z,101517.88
2022-09-03T08:01:33.580Z,101514.66
2022-09-03T08:04:01.703Z,101518.50
2022-09-03T08:06:29.978Z,101523.16
2022-09-03T08:09:03.718Z,101514.91
2022-09-03T08:11:31.493Z,101514.28
2022-09-03T08:14:06.280Z,101514.19
2022-09-03T08:16:38.189Z,101514.41
2022-09-03T08:19:05.291Z,101517.31
2022-09-03T08:21:31.946Z,101512.06
2022-09-03T08:24:04.325Z,101510.13
2022-09-03T08:26:32.891Z,101509.72
2022-09-03T08:28:59.952Z,101509.22
2022-09-03T08:31:28.250Z,101508.66
2022-09-03T08:33:57.124Z,101501.06
2022-09-03T08:36:25.333Z,101507.25
2022-09-03T08:38:55.157Z,101492.41
2022-09-03T08:41:46.400Z,101486.31
2022-09-03T08:44:19.343Z,101493.56
2022-09-03T08:47:23.361Z,101485.31
2022-09-03T08:50:12.615Z,101487.22
2022-09-03T08:53:09.701Z,101481.50
2022-09-03T08:55:50.578Z,101479.53
2022-09-03T08:58:19.680Z,101481.44
2022-09-03T09:01:01.479Z,101480.41
2022-09-03T09:03:31.803Z,101477.78
2022-09-03T09:06:07.979Z,101477.63
2022-09-03T09:08:56.445Z,101479.81
2022-09-03T09:11:34.035Z,101475.44
2022-09-03T09:14:14.532Z,101474.31
2022-09-03T09:17:02.045Z,101474.81
2022-09-03T09:19:42.025Z,101476.91
2022-09-03T09:22:24.010Z,101470.75
2022-09-03T09:24:53.277Z,101465.84
2022-09-03T09:27:19.823Z,101461.16
2022-09-03T09:29:50.975Z,101469.63
2022-09-03T09:32:20.229Z,101465.91
2022-09-03T09:34:51.967Z,101451.81
2022-09-03T09:37:19.073Z,101453.63
2022-09-03T09:39:57.721Z,101450.59
2022-09-03T09:42:24.769Z,101449.41
2022-09-03T09:44:51.426Z,101448.91
2022-09-03T09:48:10.823Z,101444.47
2022-09-03T09:50:37.255Z,101441.22
2022-09-03T09:53:14.334Z,101446.03
2022-09-03T09:55:58.201Z,101448.03
2022-09-03T09:58:28.368Z,101444.28
2022-09-03T10:01:04.016Z,101442.69
2022-09-03T10:03:37.434Z,101437.00
2022-09-03T10:06:28.388Z,101425.84
2022-09-03T10:09:15.808Z,101429.59
2022-09-03T10:11:52.203Z,101427.31
2022-09-03T10:14:32.569Z,101433.44
2022-09-03T10:17:10.614Z,101423.69
2022-09-03T10:20:08.625Z,101427.75
2022-09-03T10:22:48.360Z,101419.59
2022-09-03T10:25:39.062Z,101424.47
2022-09-03T10:28:07.615Z,101423.31
2022-09-03T10:30:47.617Z,101411.22
2022-09-03T10:33:26.113Z,101408.53
2022-09-03T10:36:03.661Z,101409.75
2022-09-03T10:38:34.814Z,101402.72
2022-09-03T10:41:32.002Z,101409.41
2022-09-03T10:44:35.534Z,101403.03
2022-09-03T10:47:18.547Z,101406.78
2022-09-03T10:50:03.754Z,101409.13
2022-09-03T10:52:52.977Z,101397.28
2022-09-03T10:55:42.388Z,101399.53
2022-09-03T10:58:41.380Z,101393.00
2022-09-03T11:01:22.186Z,101395.53
2022-09-03T11:03:53.293Z,101392.94
2022-09-03T11:06:30.297Z,101403.44
2022-09-03T11:09:11.726Z,101401.34
2022-09-03T11:11:45.887Z,101390.84
2022-09-03T11:14:27.661Z,101390.94
2022-09-03T11:17:06.419Z,101385.19
2022-09-03T11:19:48.211Z,101383.81
2022-09-03T11:22:20.974Z,101387.91
2022-09-03T11:24:54.242Z,101372.47
2022-09-03T11:27:40.890Z,101373.91
2022-09-03T11:30:10.263Z,101368.91
2022-09-03T11:32:55.768Z,101367.88
2022-09-03T11:35:29.101Z,101364.97
2022-09-03T11:37:59.867Z,101350.34
2022-09-03T11:40:32.433Z,101350.78
2022-09-03T11:43:24.102Z,101356.31
2022-09-03T11:46:25.021Z,101360.03
2022-09-03T11:48:55.406Z,101363.69
2022-09-03T11:51:30.733Z,101355.72
2022-09-03T11:54:23.814Z,101345.06
2022-09-03T11:56:50.639Z,101346.59
2022-09-03T11:59:23.395Z,101350.97
2022-09-03T12:01:59.060Z,101347.63
2022-09-03T12:08:21.185Z,101346.41
2022-09-03T12:11:15.228Z,101336.31
2022-09-03T12:14:19.690Z,101327.56
2022-09-03T12:16:59.623Z,101327.78
2022-09-03T12:19:35.928Z,101332.97
2022-09-03T12:22:05.424Z,101337.88
2022-09-03T12:24:37.703Z,101327.81
2022-09-03T12:27:05.341Z,101330.50
2022-09-03T12:29:31.954Z,101336.81
2022-09-03T12:32:07.546Z,101326.56
2022-09-03T12:34:34.123Z,101335.56
2022-09-03T12:37:00.568Z,101324.72
2022-09-03T12:42:24.600Z,101320.88
2022-09-03T12:44:51.033Z,101319.50
2022-09-03T12:47:37.432Z,101323.84
2022-09-03T12:50:17.042Z,101313.69
2022-09-03T12:52:51.561Z,101306.88
2022-09-03T12:55:34.043Z,101303.25
2022-09-03T12:58:23.941Z,101311.16
2022-09-03T13:00:57.553Z,101307.94
2022-09-03T13:03:34.428Z,101313.41
2022-09-03T13:06:07.488Z,101304.00
2022-09-03T13:08:44.695Z,101312.63
2022-09-03T13:11:16.492Z,101301.91
2022-09-03T13:13:53.911Z,101296.84
2022-09-03T13:16:44.261Z,101296.97
2022-09-03T13:19:37.023Z,101294.25
2022-09-03T13:22:33.130Z,101297.00
2022-09-03T13:25:09.925Z,101294.66
2022-09-03T13:27:52.717Z,101288.72
2022-09-03T13:30:31.086Z,101286.19
2022-09-03T13:33:22.131Z,101286.50
2022-09-03T13:36:14.856Z,101289.06
2022-09-03T13:38:59.099Z,101288.72
2022-09-03T13:41:36.380Z,101291.47
2022-09-03T13:44:17.936Z,101284.94
2022-09-03T13:46:57.553Z,101286.22
2022-09-03T13:49:55.800Z,101278.16
2022-09-03T13:52:45.098Z,101275.53
2022-09-03T13:55:33.483Z,101270.44
2022-09-03T13:58:30.647Z,101273.19
2022-09-03T14:00:58.083Z,101269.47
2022-09-03T14:03:49.007Z,101266.81
2022-09-03T14:06:26.932Z,101262.63
2022-09-03T14:09:09.680Z,101267.16
2022-09-03T14:11:49.405Z,101265.28
2022-09-03T14:14:37.435Z,101268.69
2022-09-03T14:17:19.017Z,101261.94
2022-09-03T14:20:02.356Z,101258.97
2022-09-03T14:22:43.660Z,101261.94
2022-09-03T14:25:15.733Z,101254.97
2022-09-03T14:27:42.579Z,101257.28
2022-09-03T14:30:27.418Z,101252.47
2022-09-03T14:33:16.954Z,101255.91
2022-09-03T14:36:07.316Z,101258.16
2022-09-03T14:39:03.333Z,101249.63
2022-09-03T14:41:51.562Z,101241.31
2022-09-03T14:44:45.063Z,101246.66
2022-09-03T14:47:28.454Z,101245.16
2022-09-03T14:50:06.456Z,101234.31
2022-09-03T14:52:58.084Z,101247.38
2022-09-03T14:55:58.295Z,101242.97
2022-09-03T14:58:37.691Z,101243.00
2022-09-03T15:01:28.864Z,101240.63
2022-09-03T15:04:19.543Z,101239.78
2022-09-03T15:07:13.506Z,101242.50
2022-09-03T15:09:54.519Z,101240.25
2022-09-03T15:12:40.452Z,101239.00
2022-09-03T15:15:13.591Z,101234.44
2022-09-03T15:18:05.059Z,101230.19
2022-09-03T15:20:50.347Z,101232.06
2022-09-03T15:23:24.850Z,101227.66
2022-09-03T15:26:10.883Z,101223.28
2022-09-03T15:28:54.570Z,101236.00
2022-09-03T15:31:44.438Z,101232.66
2022-09-03T15:34:32.303Z,101229.47
2022-09-03T15:37:07.294Z,101233.84
2022-09-03T15:39:36.973Z,101232.56
2022-09-03T15:42:27.672Z,101236.19
2022-09-03T15:45:00.920Z,101225.97
2022-09-03T15:47:51.683Z,101235.84
2022-09-03T15:50:35.191Z,101235.88
2022-09-03T15:53:24.352Z,101234.09
2022-09-03T15:56:13.677Z,101230.44
2022-09-03T15:59:03.178Z,101246.78
2022-09-03T16:01:54.169Z,101245.59
2022-09-03T16:04:40.726Z,101243.56
2022-09-03T16:07:20.850Z,101245.84
2022-09-03T16:10:24.260Z,101245.03
2022-09-03T16:13:05.770Z,101240.63
2022-09-03T16:15:41.323Z,101238.59
2022-09-03T16:18:10.436Z,101233.25
2022-09-03T16:20:42.985Z,101237.63
2022-09-03T16:23:20.527Z,101240.25
2022-09-03T16:26:03.937Z,101231.44
2022-09-03T16:28:50.360Z,101239.50
2022-09-03T16:31:57.872Z,101247.63
2022-09-03T16:34:54.533Z,101243.56
2022-09-03T16:37:48.201Z,101242.25
2022-09-03T16:40:36.518Z,101235.47
2022-09-03T16:43:40.282Z,101247.69
2022-09-03T16:46:22.262Z,101247.03
2022-09-03T16:49:07.359Z,101241.50
2022-09-03T16:51:37.607Z,101248.56
2022-09-03T16:54:30.779Z,101243.22
2022-09-03T16:57:21.915Z,101235.47
2022-09-03T16:59:51.028Z,101251.19
2022-09-03T17:02:41.498Z,101237.94
2022-09-03T17:05:21.407Z,101248.72
2022-09-03T17:08:06.164Z,101242.28
2022-09-03T17:11:03.062Z,101241.63
2022-09-03T17:13:55.186Z,101249.31
2022-09-03T17:16:57.448Z,101246.41
2022-09-03T17:19:55.978Z,101244.53
2022-09-03T17:22:42.941Z,101252.66
2022-09-03T17:25:29.411Z,101250.59
2022-09-03T17:28:10.167Z,101249.75
2022-09-03T17:30:49.240Z,101257.41
2022-09-03T17:33:35.834Z,101253.22
2022-09-03T17:36:15.495Z,101249.69
2022-09-03T17:39:02.107Z,101244.69
2022-09-03T17:41:44.499Z,101257.16
2022-09-03T17:44:28.631Z,101260.44
2022-09-03T17:47:37.912Z,101262.66
2022-09-03T17:50:16.910Z,101267.56
2022-09-03T17:52:49.534Z,101269.41
2022-09-03T17:55:34.218Z,101271.09
2022-09-03T17:58:17.000Z,101272.94
2022-09-03T18:01:05.193Z,101281.69
2022-09-03T18:03:48.989Z,101279.41
2022-09-03T18:06:33.604Z,101286.97
2022-09-03T18:09:10.167Z,101283.03
2022-09-03T18:11:41.221Z,101283.69
2022-09-03T18:14:43.202Z,101291.72
2022-09-03T18:17:20.569Z,101299.94
2022-09-03T18:20:12.661Z,101298.25
2022-09-03T18:23:08.792Z,101295.75
2022-09-03T18:25:57.195Z,101301.25
2022-09-03T18:28:53.734Z,101299.09
2022-09-03T18:31:38.993Z,101300.13
2022-09-03T18:34:23.752Z,101296.09
2022-09-03T18:37:09.419Z,101301.44
2022-09-03T18:39:54.341Z,101303.47
2022-09-03T18:43:15.129Z,101306.47
2022-09-03T18:49:45.708Z,101301.78
2022-09-03T18:52:45.729Z,101304.16
2022-09-03T18:56:04.295Z,101305.31
2022-09-03T18:59:06.674Z,101313.00
2022-09-03T19:01:55.216Z,101315.50
2022-09-03T19:05:17.613Z,101314.09
2022-09-03T19:08:36.305Z,101306.44
2022-09-03T19:11:55.849Z,101315.06
2022-09-03T19:14:58.364Z,101310.25
2022-09-03T19:18:12.414Z,101313.41
2022-09-03T19:21:00.531Z,101315.91
2022-09-03T19:23:45.744Z,101319.59
2022-09-03T19:26:45.959Z,101310.09
2022-09-03T19:29:44.440Z,101310.41
2022-09-03T19:32:37.804Z,101313.25
2022-09-03T19:35:36.310Z,101318.94
2022-09-03T19:39:15.812Z,101312.25
2022-09-03T19:42:11.429Z,101328.94
2022-09-03T19:45:26.112Z,101325.59
2022-09-03T19:48:27.770Z,101320.41
2022-09-03T19:51:20.936Z,101320.94
2022-09-03T19:54:07.062Z,101321.09
2022-09-03T19:56:55.453Z,101325.28
2022-09-03T19:59:45.051Z,101331.28
2022-09-03T20:02:30.302Z,101335.44
2022-09-03T20:05:18.178Z,101329.09
2022-09-03T20:08:06.300Z,101333.28
2022-09-03T20:10:34.838Z,101339.63
2022-09-03T20:13:10.111Z,101335.44
2022-09-03T20:16:00.725Z,101342.81
2022-09-03T20:18:48.730Z,101346.47
2022-09-03T20:21:33.315Z,101348.81
2022-09-03T20:24:21.459Z,101351.50
2022-09-03T20:27:28.908Z,101345.13
2022-09-03T20:30:01.816Z,101345.81
2022-09-03T20:33:05.511Z,101352.81
2022-09-03T20:35:45.532Z,101343.28
2022-09-03T20:38:30.400Z,101346.13
2022-09-03T20:41:23.208Z,101354.97
2022-09-03T20:44:10.882Z,101352.47
2022-09-03T20:46:43.004Z,101353.78
2022-09-03T20:49:31.372Z,101355.44
2022-09-03T20:52:07.255Z,101355.63
2022-09-03T20:54:42.519Z,101352.59
2022-09-03T20:57:22.131Z,101356.47
2022-09-03T20:59:59.286Z,101362.97
2022-09-03T21:02:37.498Z,101356.47
2022-09-03T21:05:09.816Z,101358.63
2022-09-03T21:08:03.616Z,101362.78
2022-09-03T21:11:00.854Z,101361.09
2022-09-03T21:13:42.231Z,101358.25
2022-09-03T21:16:36.874Z,101353.91
2022-09-03T21:19:29.690Z,101360.91
2022-09-03T21:22:04.654Z,101356.75
2022-09-03T21:24:39.822Z,101359.06
2022-09-03T21:27:16.466Z,101362.56
2022-09-03T21:30:06.410Z,101360.38
2022-09-03T21:32:38.916Z,101362.69
2022-09-03T21:35:13.457Z,101364.38
2022-09-03T21:37:44.947Z,101368.50
2022-09-03T21:40:13.242Z,101371.34
2022-09-03T21:42:59.675Z,101381.84
2022-09-03T21:45:40.357Z,101375.03
2022-09-03T21:48:18.176Z,101379.16
2022-09-03T21:50:55.515Z,101379.16
2022-09-03T21:53:54.803Z,101375.66
2022-09-03T21:56:39.342Z,101373.66
2022-09-03T21:59:17.118Z,101384.00
2022-09-03T22:02:21.795Z,101387.84
2022-09-03T22:04:49.733Z,101386.63
2022-09-03T22:07:46.912Z,101380.13
2022-09-03T22:10:57.478Z,101385.56
2022-09-03T22:13:32.038Z,101382.22
2022-09-03T22:16:26.191Z,101391.91
2022-09-03T22:18:54.137Z,101388.38
2022-09-03T22:21:32.572Z,101395.63
2022-09-03T22:24:23.426Z,101391.75
2022-09-03T22:26:57.922Z,101396.91
2022-09-03T22:29:24.273Z,101401.09
2022-09-03T22:32:23.108Z,101398.53
2022-09-03T22:35:25.665Z,101402.19
2022-09-03T22:38:28.506Z,101401.47
2022-09-03T22:41:20.122Z,101412.63
2022-09-03T22:44:19.586Z,101413.47
2022-09-03T22:46:48.965Z,101406.59
2022-09-03T22:49:35.802Z,101417.06
2022-09-03T22:52:28.830Z,101410.69
2022-09-03T22:55:15.599Z,101414.50
2022-09-03T22:57:51.763Z,101417.63
2022-09-03T23:00:18.936Z,101419.94
2022-09-03T23:02:53.759Z,101424.69
2022-09-03T23:05:32.546Z,101425.34
2022-09-03T23:08:23.303Z,101424.44
2022-09-03T23:11:05.891Z,101420.13
2022-09-03T23:13:41.906Z,101431.06
2022-09-03T23:16:28.859Z,101422.47
2022-09-03T23:18:57.894Z,101435.56
2022-09-03T23:21:40.731Z,101424.47
2022-09-03T23:24:21.062Z,101435.06
2022-09-03T23:26:52.506Z,101435.34
2022-09-03T23:29:27.577Z,101429.06
2022-09-03T23:31:59.307Z,101436.38
2022-09-03T23:34:26.970Z,101427.47
2022-09-03T23:37:35.351Z,101431.97
2022-09-03T23:40:24.052Z,101435.13
2022-09-03T23:43:02.224Z,101430.94
2022-09-03T23:45:50.993Z,101428.22
2022-09-03T23:48:51.388Z,101442.91
2022-09-03T23:51:30.142Z,101438.81
2022-09-03T23:54:11.897Z,101438.81
2022-09-03T23:56:55.888Z,101434.63
